Airey, Mississippi
Current Conditions -  °F | °C
As of 11:53 AM on Saturday 20 Dec 2014 (Local Time) from KGPT Reporting Station
Overcast Overcast  
Wind Chill: 11°   Ceiling: 900
Heat Index: 11°   Visibility: 10mi
Dew Point:   Wind: 13mph
Humidity: 86%   Direction: 360°N
Pressure: 30.13"   Gusts: NA
Location:  30.603°N, 89.0932°W
Report Text: KGPT 201753Z 36011KT 10SM OVC009 11/08 A3013 RMK AO2 SLP201 T01060083 10106 20083 58004
Loading
Personal Weather Stations






























Interactive Weather Map New forecast layout! Learn more

10-Day Weather Forecast

Advertisements
Track Severe Weather on mobile